createdAt,value
2018-09-15T00:00:42.950Z,92.97
2018-09-15T00:01:42.942Z,92.87
2018-09-15T00:02:42.937Z,92.78
2018-09-15T00:03:42.930Z,92.97
2018-09-15T00:04:42.924Z,92.49
2018-09-15T00:05:42.925Z,92.44
2018-09-15T00:06:42.913Z,93.4
2018-09-15T00:07:42.908Z,93.21
2018-09-15T00:08:42.907Z,93.12
2018-09-15T00:09:42.903Z,93.12
2018-09-15T00:10:42.892Z,93.12
2018-09-15T00:11:42.890Z,93.12
2018-09-15T00:12:42.888Z,93.3
2018-09-15T00:13:42.877Z,93.3
2018-09-15T00:14:42.873Z,93.02
2018-09-15T00:15:42.864Z,93.12
2018-09-15T00:16:42.857Z,93.5
2018-09-15T00:17:42.852Z,93.35
2018-09-15T00:18:42.846Z,93.84
2018-09-15T00:19:42.844Z,93.45
2018-09-15T00:20:42.842Z,93.64
2018-09-15T00:21:42.837Z,93.45
2018-09-15T00:22:42.578Z,94.02
2018-09-15T00:23:42.819Z,93.64
2018-09-15T00:24:42.560Z,93.26
2018-09-15T00:25:42.553Z,93.64
2018-09-15T00:26:42.800Z,93.35
2018-09-15T00:27:42.794Z,93.26
2018-09-15T00:28:42.787Z,93.35
2018-09-15T00:29:42.784Z,93.69
2018-09-15T00:30:42.523Z,93.69
2018-09-15T00:31:42.771Z,93.79
2018-09-15T00:32:42.765Z,93.69
2018-09-15T00:33:42.756Z,93.5
2018-09-15T00:34:42.754Z,93.69
2018-09-15T00:35:42.748Z,93.6
2018-09-15T00:36:42.486Z,93.69
2018-09-15T00:37:42.740Z,93.88
2018-09-15T00:38:42.725Z,93.98
2018-09-15T00:39:42.719Z,93.79
2018-09-15T00:40:42.711Z,93.93
2018-09-15T00:41:42.787Z,93.79
2018-09-15T00:42:42.705Z,93.79
2018-09-15T00:43:42.692Z,93.98
2018-09-15T00:44:42.684Z,93.74
2018-09-15T00:45:42.677Z,94.12
2018-09-15T00:46:42.672Z,93.93
2018-09-15T00:47:42.667Z,93.74
2018-09-15T00:48:42.659Z,94.12
2018-09-15T00:49:42.655Z,93.93
2018-09-15T00:50:42.895Z,93.93
2018-09-15T00:51:42.640Z,93.84
2018-09-15T00:52:42.633Z,93.93
2018-09-15T00:53:42.630Z,93.74
2018-09-15T00:54:42.620Z,93.93
2018-09-15T00:55:42.362Z,93.74
2018-09-15T00:56:42.606Z,93.93
2018-09-15T00:57:42.605Z,93.74
2018-09-15T00:58:42.340Z,93.74
2018-09-15T00:59:42.594Z,93.84
2018-09-15T01:00:42.578Z,93.6
2018-09-15T01:01:42.574Z,93.7
2018-09-15T01:02:42.567Z,93.6
2018-09-15T01:03:42.557Z,93.79
2018-09-15T01:04:42.552Z,93.5
2018-09-15T01:05:42.542Z,93.5
2018-09-15T01:06:42.549Z,93.6
2018-09-15T01:07:42.533Z,93.88
2018-09-15T01:08:42.522Z,93.41
2018-09-15T01:09:42.525Z,93.31
2018-09-15T01:10:42.510Z,93.7
2018-09-15T01:11:42.531Z,93.7
2018-09-15T01:12:42.495Z,93.12
2018-09-15T01:13:42.489Z,93.5
2018-09-15T01:14:42.486Z,93.41
2018-09-15T01:15:42.476Z,93.5
2018-09-15T01:16:42.467Z,93.6
2018-09-15T01:17:42.463Z,93.7
2018-09-15T01:18:42.457Z,93.5
2018-09-15T01:19:42.446Z,93.5
2018-09-15T01:20:42.187Z,93.31
2018-09-15T01:21:42.682Z,93.5
2018-09-15T01:22:42.425Z,93.5
2018-09-15T01:23:42.418Z,93.17
2018-09-15T01:24:42.410Z,93.17
2018-09-15T01:25:42.152Z,93.07
2018-09-15T01:26:42.396Z,93.31
2018-09-15T01:27:42.388Z,92.97
2018-09-15T01:28:42.380Z,92.6
2018-09-15T01:29:42.374Z,92.79
2018-09-15T01:30:42.368Z,92.69
2018-09-15T01:31:42.107Z,92.79
2018-09-15T01:32:42.356Z,93.12
2018-09-15T01:33:42.345Z,93.07
2018-09-15T01:34:42.338Z,93.02
2018-09-15T01:35:42.330Z,92.36
2018-09-15T01:36:42.324Z,93.12
2018-09-15T01:37:42.316Z,92.36
2018-09-15T01:38:42.309Z,92.41
2018-09-15T01:39:42.302Z,92.36
2018-09-15T01:40:42.294Z,92.12
2018-09-15T01:41:42.286Z,92.45
2018-09-15T01:42:42.280Z,92.64
2018-09-15T01:43:42.272Z,92.45
2018-09-15T01:44:42.266Z,92.55
2018-09-15T01:45:42.257Z,92.45
2018-09-15T01:46:42.256Z,92.55
2018-09-15T01:47:42.248Z,92.55
2018-09-15T01:48:42.237Z,92.6
2018-09-15T01:49:42.230Z,92.6
2018-09-15T01:50:42.223Z,92.5
2018-09-15T01:51:42.214Z,92.69
2018-09-15T01:52:42.207Z,92.6
2018-09-15T01:53:42.204Z,92.69
2018-09-15T01:54:42.201Z,92.69
2018-09-15T01:55:42.273Z,92.5
2018-09-15T01:56:42.188Z,92.6
2018-09-15T01:57:42.428Z,92.31
2018-09-15T01:58:42.168Z,92.69
2018-09-15T01:59:42.159Z,92.5
2018-09-15T02:00:42.150Z,92.31
2018-09-15T02:01:42.151Z,92.5
2018-09-15T02:02:42.135Z,92.41
2018-09-15T02:03:42.127Z,92.69
2018-09-15T02:04:42.120Z,92.41
2018-09-15T02:05:42.113Z,92.12
2018-09-15T02:06:42.108Z,92.6
2018-09-15T02:07:42.098Z,92.41
2018-09-15T02:08:42.094Z,92.5
2018-09-15T02:09:42.084Z,92.31
2018-09-15T02:10:41.824Z,92.41
2018-09-15T02:11:42.068Z,92.5
2018-09-15T02:12:42.061Z,92.12
2018-09-15T02:13:42.056Z,92.12
2018-09-15T02:14:42.046Z,92.21
2018-09-15T02:15:42.039Z,92.26
2018-09-15T02:16:42.033Z,92.12
2018-09-15T02:17:42.025Z,92.31
2018-09-15T02:18:42.015Z,92.21
2018-09-15T02:19:42.011Z,92.26
2018-09-15T02:20:42.005Z,92.26
2018-09-15T02:21:41.995Z,92.31
2018-09-15T02:22:42.241Z,92.36
2018-09-15T02:23:41.980Z,92.07
2018-09-15T02:24:41.973Z,92.17
2018-09-15T02:25:41.966Z,92.36
2018-09-15T02:26:41.961Z,92.36
2018-09-15T02:27:41.950Z,92.07
2018-09-15T02:28:41.944Z,91.98
2018-09-15T02:29:41.938Z,91.98
2018-09-15T02:30:41.929Z,92.36
2018-09-15T02:31:41.929Z,91.98
2018-09-15T02:32:41.913Z,91.6
2018-09-15T02:33:41.905Z,91.74
2018-09-15T02:34:41.915Z,91.83
2018-09-15T02:35:41.890Z,91.83
2018-09-15T02:36:41.882Z,91.64
2018-09-15T02:37:41.878Z,91.74
2018-09-15T02:38:41.868Z,91.55
2018-09-15T02:39:41.609Z,91.64
2018-09-15T02:40:41.856Z,91.74
2018-09-15T02:41:41.849Z,91.55
2018-09-15T02:42:41.596Z,91.74
2018-09-15T02:43:41.834Z,91.83
2018-09-15T02:44:41.822Z,91.93
2018-09-15T02:45:41.813Z,91.83
2018-09-15T02:46:41.558Z,91.6
2018-09-15T02:47:41.809Z,91.74
2018-09-15T02:48:41.792Z,91.88
2018-09-15T02:49:41.785Z,91.6
2018-09-15T02:50:41.527Z,91.6
2018-09-15T02:51:41.771Z,91.6
2018-09-15T02:52:41.761Z,91.41
2018-09-15T02:53:41.755Z,91.6
2018-09-15T02:54:41.777Z,91.6
2018-09-15T02:55:41.739Z,91.6
2018-09-15T02:56:41.732Z,91.69
2018-09-15T02:57:41.731Z,91.74
2018-09-15T02:58:41.715Z,91.55
2018-09-15T02:59:41.710Z,91.74
2018-09-15T03:00:41.703Z,91.69
2018-09-15T03:01:41.695Z,91.78
2018-09-15T03:02:41.685Z,91.64
2018-09-15T03:03:41.679Z,91.69
2018-09-15T03:04:41.678Z,91.6
2018-09-15T03:05:41.664Z,91.55
2018-09-15T03:06:41.657Z,91.74
2018-09-15T03:07:41.653Z,91.74
2018-09-15T03:08:41.658Z,91.78
2018-09-15T03:09:41.635Z,91.74
2018-09-15T03:10:41.712Z,91.26
2018-09-15T03:11:41.620Z,91.83
2018-09-15T03:12:41.622Z,91.78
2018-09-15T03:13:41.604Z,91.88
2018-09-15T03:14:41.342Z,91.78
2018-09-15T03:15:41.589Z,91.88
2018-09-15T03:16:41.584Z,91.78
2018-09-15T03:17:41.573Z,91.41
2018-09-15T03:18:41.572Z,91.6
2018-09-15T03:19:41.560Z,91.41
2018-09-15T03:20:41.550Z,91.78
2018-09-15T03:21:41.548Z,91.69
2018-09-15T03:22:41.538Z,91.78
2018-09-15T03:23:41.528Z,91.69
2018-09-15T03:24:41.520Z,91.88
2018-09-15T03:25:41.518Z,91.88
2018-09-15T03:26:41.515Z,91.98
2018-09-15T03:27:41.502Z,92.07
2018-09-15T03:28:41.489Z,91.88
2018-09-15T03:29:41.480Z,91.98
2018-09-15T03:30:41.474Z,91.88
2018-09-15T03:31:41.470Z,91.88
2018-09-15T03:32:41.458Z,91.6
2018-09-15T03:33:41.197Z,91.88
2018-09-15T03:34:41.442Z,91.83
2018-09-15T03:35:41.438Z,91.64
2018-09-15T03:36:41.430Z,91.83
2018-09-15T03:37:41.418Z,91.83
2018-09-15T03:38:41.410Z,91.64
2018-09-15T03:39:41.403Z,91.46
2018-09-15T03:40:41.143Z,91.46
2018-09-15T03:41:41.737Z,91.36
2018-09-15T03:42:41.379Z,91.83
2018-09-15T03:43:41.371Z,91.36
2018-09-15T03:44:41.366Z,91.46
2018-09-15T03:45:41.356Z,92.03
2018-09-15T03:46:41.348Z,92.22
2018-09-15T03:47:41.338Z,91.36
2018-09-15T03:48:41.332Z,92.22
2018-09-15T03:49:41.328Z,91.64
2018-09-15T03:50:41.315Z,92.03
2018-09-15T03:51:41.309Z,92.03
2018-09-15T03:52:41.311Z,92.22
2018-09-15T03:53:41.291Z,92.22
2018-09-15T03:54:41.287Z,91.93
2018-09-15T03:55:41.277Z,92.5
2018-09-15T03:56:41.269Z,91.93
2018-09-15T03:57:41.259Z,91.93
2018-09-15T03:58:41.253Z,91.83
2018-09-15T03:59:41.244Z,92.22
2018-09-15T04:00:41.236Z,92.5
2018-09-15T04:01:41.229Z,92.12
2018-09-15T04:02:41.225Z,92.12
2018-09-15T04:03:41.211Z,92.22
2018-09-15T04:04:41.203Z,92.12
2018-09-15T04:05:41.195Z,92.32
2018-09-15T04:06:41.189Z,92.32
2018-09-15T04:07:41.179Z,92.41
2018-09-15T04:08:40.919Z,92.12
2018-09-15T04:09:40.911Z,91.93
2018-09-15T04:10:41.153Z,92.22
2018-09-15T04:11:41.148Z,92.22
2018-09-15T04:12:41.138Z,92.32
2018-09-15T04:13:41.130Z,92.32
2018-09-15T04:14:41.123Z,92.12
2018-09-15T04:15:41.121Z,92.03
2018-09-15T04:16:41.108Z,92.22
2018-09-15T04:17:41.103Z,92.12
2018-09-15T04:18:41.089Z,92.12
2018-09-15T04:19:41.082Z,92.22
2018-09-15T04:20:41.075Z,92.22
2018-09-15T04:21:40.814Z,92.17
2018-09-15T04:22:41.061Z,92.41
2018-09-15T04:23:41.047Z,92.08
2018-09-15T04:24:41.040Z,92.27
2018-09-15T04:25:40.781Z,92.08
2018-09-15T04:26:41.022Z,92.08
2018-09-15T04:27:41.025Z,92.46
2018-09-15T04:28:41.006Z,92.36
2018-09-15T04:29:41.000Z,91.88
2018-09-15T04:30:40.990Z,92.27
2018-09-15T04:31:40.981Z,91.79
2018-09-15T04:32:40.980Z,91.98
2018-09-15T04:33:40.965Z,92.36
2018-09-15T04:34:40.962Z,92.17
2018-09-15T04:35:40.960Z,92.08
2018-09-15T04:36:40.942Z,92.36
2018-09-15T04:37:40.931Z,92.17
2018-09-15T04:38:40.923Z,92.36
2018-09-15T04:39:40.915Z,92.36
2018-09-15T04:40:40.905Z,91.88
2018-09-15T04:41:40.973Z,92.17
2018-09-15T04:42:40.890Z,92.17
2018-09-15T04:43:40.887Z,92.08
2018-09-15T04:44:40.626Z,92.03
2018-09-15T04:45:40.613Z,92.12
2018-09-15T04:46:40.857Z,91.83
2018-09-15T04:47:40.849Z,91.93
2018-09-15T04:48:40.844Z,92.03
2018-09-15T04:49:40.833Z,91.46
2018-09-15T04:50:40.576Z,91.55
2018-09-15T04:51:40.814Z,91.17
2018-09-15T04:52:40.890Z,91.46
2018-09-15T04:53:40.799Z,91.36
2018-09-15T04:54:40.801Z,91.17
2018-09-15T04:55:40.783Z,91.07
2018-09-15T04:56:40.783Z,91.36
2018-09-15T04:57:40.766Z,90.73
2018-09-15T04:58:40.851Z,90.41
2018-09-15T04:59:41.014Z,90.36
2018-09-15T05:00:40.741Z,90.83
2018-09-15T05:01:40.737Z,90.64
2018-09-15T05:02:40.725Z,91.12
2018-09-15T05:03:40.721Z,90.73
2018-09-15T05:04:40.710Z,90.73
2018-09-15T05:05:40.709Z,90.73
2018-09-15T05:06:40.885Z,91.45
2018-09-15T05:07:40.687Z,90.78
2018-09-15T05:08:40.680Z,90.4
2018-09-15T05:09:40.419Z,90.5
2018-09-15T05:10:40.412Z,90.4
2018-09-15T05:11:40.658Z,91.36
2018-09-15T05:12:40.794Z,91.55
2018-09-15T05:13:40.640Z,91.26
2018-09-15T05:14:40.643Z,91.26
2018-09-15T05:15:40.627Z,91.07
2018-09-15T05:16:40.628Z,90.97
2018-09-15T05:17:40.611Z,91.55
2018-09-15T05:18:40.604Z,91.74
2018-09-15T05:19:40.609Z,91.55
2018-09-15T05:20:40.589Z,91.55
2018-09-15T05:21:40.580Z,92.02
2018-09-15T05:22:40.322Z,92.02
2018-09-15T05:23:40.569Z,92.21
2018-09-15T05:24:40.562Z,92.31
2018-09-15T05:25:40.551Z,92.12
2018-09-15T05:26:40.546Z,92.41
2018-09-15T05:27:40.536Z,92.12
2018-09-15T05:28:40.533Z,92.02
2018-09-15T05:29:40.527Z,91.93
2018-09-15T05:30:40.514Z,91.93
2018-09-15T05:31:40.673Z,92.02
2018-09-15T05:32:40.500Z,92.02
2018-09-15T05:33:40.493Z,91.93
2018-09-15T05:34:40.486Z,92.02
2018-09-15T05:35:40.479Z,92.21
2018-09-15T05:36:40.478Z,91.83
2018-09-15T05:37:40.466Z,92.26
2018-09-15T05:38:40.458Z,92.36
2018-09-15T05:39:40.451Z,92.26
2018-09-15T05:40:40.444Z,92.07
2018-09-15T05:41:40.437Z,92.21
2018-09-15T05:42:40.429Z,92.4
2018-09-15T05:43:40.422Z,92.59
2018-09-15T05:44:40.417Z,92.4
2018-09-15T05:45:40.424Z,92.64
2018-09-15T05:46:40.152Z,92.83
2018-09-15T05:47:40.400Z,92.64
2018-09-15T05:48:40.445Z,92.78
2018-09-15T05:49:40.506Z,92.69
2018-09-15T05:50:40.384Z,92.69
2018-09-15T05:51:40.123Z,92.73
2018-09-15T05:52:40.370Z,92.92
2018-09-15T05:53:40.364Z,92.49
2018-09-15T05:54:40.361Z,92.3
2018-09-15T05:55:40.365Z,91.86
2018-09-15T05:56:40.352Z,91.67
2018-09-15T05:57:40.349Z,91.91
2018-09-15T05:58:40.343Z,91.05
2018-09-15T05:59:40.336Z,90.81
2018-09-15T06:00:40.332Z,90.42
2018-09-15T06:01:40.447Z,89.94
2018-09-15T06:02:40.324Z,88.65
2018-09-15T06:03:40.327Z,88.07
2018-09-15T06:04:40.329Z,88.21
2018-09-15T06:05:40.314Z,87.92
2018-09-15T06:06:40.121Z,87.39
2018-09-15T06:07:40.088Z,86.62
2018-09-15T06:08:40.307Z,86.28
2018-09-15T06:09:40.304Z,85.61
2018-09-15T06:10:40.301Z,85.07
2018-09-15T06:11:40.297Z,84.21
2018-09-15T06:12:40.292Z,84.4
2018-09-15T06:13:40.077Z,83.48
2018-09-15T06:14:40.039Z,83.29
2018-09-15T06:15:40.284Z,82.56
2018-09-15T06:16:40.033Z,82.08
2018-09-15T06:17:40.284Z,81.7
2018-09-15T06:18:40.280Z,81.06
2018-09-15T06:19:40.277Z,80.38
2018-09-15T06:20:40.281Z,80.1
2018-09-15T06:21:40.282Z,80.14
2018-09-15T06:22:40.274Z,79.27
2018-09-15T06:23:40.277Z,78.11
2018-09-15T06:24:40.272Z,77.28
2018-09-15T06:25:40.272Z,76.8
2018-09-15T06:26:40.270Z,76.71
2018-09-15T06:27:40.272Z,76.13
2018-09-15T06:28:40.271Z,75.88
2018-09-15T06:29:40.268Z,74.72
2018-09-15T06:30:40.272Z,73.95
2018-09-15T06:31:40.269Z,73.57
2018-09-15T06:32:40.267Z,72.54
2018-09-15T06:33:40.269Z,72.06
2018-09-15T06:34:40.268Z,71.77
2018-09-15T06:35:40.269Z,71.42
2018-09-15T06:36:40.273Z,70.84
2018-09-15T06:37:40.269Z,70.36
2018-09-15T06:38:40.277Z,69.68
2018-09-15T06:39:40.020Z,68.81
2018-09-15T06:40:40.274Z,69.1
2018-09-15T06:41:40.277Z,69.2
2018-09-15T06:42:40.273Z,68.26
2018-09-15T06:43:40.279Z,67.97
2018-09-15T06:44:40.278Z,67.59
2018-09-15T06:45:40.474Z,67.59
2018-09-15T06:46:40.277Z,66.24
2018-09-15T06:47:40.283Z,66.53
2018-09-15T06:48:40.280Z,66.33
2018-09-15T06:49:40.281Z,65.27
2018-09-15T06:50:40.280Z,65.37
2018-09-15T06:51:40.295Z,64.63
2018-09-15T06:52:40.034Z,64.05
2018-09-15T06:53:40.392Z,63.95
2018-09-15T06:54:40.290Z,63.47
2018-09-15T06:55:40.294Z,62.73
2018-09-15T06:56:40.293Z,63.02
2018-09-15T06:57:40.297Z,62.73
2018-09-15T06:58:40.045Z,61.18
2018-09-15T06:59:40.304Z,61.3
2018-09-15T07:00:40.308Z,61.4
2018-09-15T07:01:40.309Z,60.72
2018-09-15T07:02:40.310Z,60.72
2018-09-15T07:03:40.309Z,60.14
2018-09-15T07:04:40.315Z,60.27
2018-09-15T07:05:40.315Z,59.21
2018-09-15T07:06:40.321Z,58.34
2018-09-15T07:07:40.327Z,57.95
2018-09-15T07:08:40.331Z,58.07
2018-09-15T07:09:40.079Z,57.5
2018-09-15T07:10:40.334Z,56.62
2018-09-15T07:11:40.339Z,56.04
2018-09-15T07:12:40.342Z,56.04
2018-09-15T07:13:40.347Z,55.58
2018-09-15T07:14:40.357Z,55.49
2018-09-15T07:15:40.356Z,55.58
2018-09-15T07:16:40.361Z,55.68
2018-09-15T07:17:40.365Z,55.13
2018-09-15T07:18:40.373Z,54.06
2018-09-15T07:19:40.375Z,53.67
2018-09-15T07:20:40.387Z,53
2018-09-15T07:21:40.400Z,52.73
2018-09-15T07:22:40.399Z,52.32
2018-09-15T07:23:40.398Z,52.15
2018-09-15T07:24:42.084Z,51.37
2018-09-15T07:25:40.159Z,51.47
2018-09-15T07:26:40.419Z,51.37
2018-09-15T07:27:40.430Z,50.6
2018-09-15T07:28:40.434Z,51.18
2018-09-15T07:29:40.437Z,51.18
2018-09-15T07:30:40.449Z,50.7
2018-09-15T07:31:40.520Z,49.85
2018-09-15T07:32:40.464Z,50.14
2018-09-15T07:33:40.464Z,49.37
2018-09-15T07:34:40.262Z,48.59
2018-09-15T07:35:40.487Z,47.72
2018-09-15T07:36:40.489Z,47.91
2018-09-15T07:37:40.724Z,48.3
2018-09-15T07:38:40.503Z,48.49
2018-09-15T07:39:40.509Z,47.52
2018-09-15T07:40:40.518Z,47.03
2018-09-15T07:41:40.527Z,48.1
2018-09-15T07:42:40.532Z,46.96
2018-09-15T07:43:40.289Z,47.35
2018-09-15T07:44:40.622Z,46.86
2018-09-15T07:45:40.557Z,46.75
2018-09-15T07:46:40.563Z,47.91
2018-09-15T07:47:40.576Z,47.91
2018-09-15T07:48:40.577Z,47.91
2018-09-15T07:49:40.588Z,48.3
2018-09-15T07:50:40.593Z,47.72
2018-09-15T07:51:40.725Z,48
2018-09-15T07:52:40.608Z,48
2018-09-15T07:53:40.612Z,47.89
2018-09-15T07:54:40.619Z,48.08
2018-09-15T07:55:40.626Z,48.47
2018-09-15T07:56:40.633Z,48.27
2018-09-15T07:57:40.827Z,47.79
2018-09-15T07:58:40.649Z,48.18
2018-09-15T07:59:40.654Z,48.18
2018-09-15T08:00:40.664Z,48.54
2018-09-15T08:01:40.414Z,48.54
2018-09-15T08:02:40.672Z,48.83
2018-09-15T08:03:40.678Z,48.32
2018-09-15T08:04:40.689Z,49
2018-09-15T08:05:40.694Z,49.46
2018-09-15T08:06:40.696Z,49.37
2018-09-15T08:07:40.707Z,50.12
2018-09-15T08:08:40.708Z,50.6
2018-09-15T08:09:40.713Z,50.76
2018-09-15T08:10:40.719Z,50.86
2018-09-15T08:11:40.724Z,51.71
2018-09-15T08:12:40.476Z,52.29
2018-09-15T08:13:40.731Z,52.65
2018-09-15T08:14:40.736Z,53.23
2018-09-15T08:15:40.740Z,53.49
2018-09-15T08:16:40.742Z,53.3
2018-09-15T08:17:40.753Z,54.33
2018-09-15T08:18:40.765Z,54.72
2018-09-15T08:19:40.748Z,55.66
2018-09-15T08:20:40.883Z,55.94
2018-09-15T08:21:40.751Z,56.04
2018-09-15T08:22:40.754Z,56.62
2018-09-15T08:23:40.753Z,56.14
2018-09-15T08:24:40.755Z,56.01
2018-09-15T08:25:40.756Z,56.21
2018-09-15T08:26:40.757Z,56.37
2018-09-15T08:27:40.789Z,57.14
2018-09-15T08:28:40.756Z,57.43
2018-09-15T08:29:40.756Z,57.92
2018-09-15T08:30:40.756Z,57.92
2018-09-15T08:31:40.759Z,58.37
2018-09-15T08:32:40.765Z,58.27
2018-09-15T08:33:40.754Z,57.69
2018-09-15T08:34:40.752Z,58.17
2018-09-15T08:35:40.752Z,58.75
2018-09-15T08:36:40.752Z,59.23
2018-09-15T08:37:41.026Z,59.23
2018-09-15T08:38:40.747Z,59.52
2018-09-15T08:39:40.753Z,59.62
2018-09-15T08:40:40.746Z,60.3
2018-09-15T08:41:40.745Z,59.33
2018-09-15T08:42:40.747Z,59.23
2018-09-15T08:43:40.742Z,59.33
2018-09-15T08:44:40.744Z,59.33
2018-09-15T08:45:40.743Z,59.33
2018-09-15T08:46:40.737Z,59.33
2018-09-15T08:47:40.739Z,59.62
2018-09-15T08:48:40.740Z,59.72
2018-09-15T08:49:40.733Z,60.1
2018-09-15T08:50:40.743Z,60.58
2018-09-15T08:51:40.729Z,60.49
2018-09-15T08:52:40.474Z,60.3
2018-09-15T08:53:40.723Z,59.62
2018-09-15T08:54:40.722Z,59.4
2018-09-15T08:55:40.720Z,59.4
2018-09-15T08:56:40.468Z,59.69
2018-09-15T08:57:40.716Z,59.69
2018-09-15T08:58:40.715Z,59.59
2018-09-15T08:59:40.714Z,59.88
2018-09-15T09:00:40.459Z,59.69
2018-09-15T09:01:40.712Z,59.49
2018-09-15T09:02:40.456Z,60.17
2018-09-15T09:03:40.804Z,59.69
2018-09-15T09:04:40.701Z,59.49
2018-09-15T09:05:40.706Z,59.49
2018-09-15T09:06:40.700Z,59.59
2018-09-15T09:07:40.695Z,59.69
2018-09-15T09:08:40.695Z,59.4
2018-09-15T09:09:40.691Z,59.3
2018-09-15T09:10:40.688Z,59.4
2018-09-15T09:11:40.689Z,59.2
2018-09-15T09:12:40.683Z,59.4
2018-09-15T09:13:40.686Z,59.11
2018-09-15T09:14:40.677Z,58.72
2018-09-15T09:15:40.678Z,58.72
2018-09-15T09:16:40.681Z,58.44
2018-09-15T09:17:40.673Z,58.34
2018-09-15T09:18:40.673Z,58.44
2018-09-15T09:19:40.417Z,57.28
2018-09-15T09:20:40.666Z,58.05
2018-09-15T09:21:40.664Z,57.67
2018-09-15T09:22:40.677Z,57.57
2018-09-15T09:23:40.659Z,57.95
2018-09-15T09:24:40.657Z,57.86
2018-09-15T09:25:40.657Z,57.09
2018-09-15T09:26:40.821Z,57.37
2018-09-15T09:27:40.649Z,58.05
2018-09-15T09:28:40.396Z,57.4
2018-09-15T09:29:40.645Z,56.6
2018-09-15T09:30:40.644Z,56.44
2018-09-15T09:31:40.646Z,57.31
2018-09-15T09:32:40.638Z,56.73
2018-09-15T09:33:40.635Z,56.44
2018-09-15T09:34:40.633Z,56.82
2018-09-15T09:35:40.631Z,56.73
2018-09-15T09:36:40.630Z,56.82
2018-09-15T09:37:40.374Z,57.12
2018-09-15T09:38:40.624Z,56.63
2018-09-15T09:39:40.374Z,56.54
2018-09-15T09:40:40.622Z,56.22
2018-09-15T09:41:40.619Z,57.18
2018-09-15T09:42:40.615Z,57.28
2018-09-15T09:43:40.614Z,57.28
2018-09-15T09:44:40.610Z,57.67
2018-09-15T09:45:40.609Z,57.86
2018-09-15T09:46:40.605Z,58.34
2018-09-15T09:47:40.604Z,57.6
2018-09-15T09:48:40.601Z,57.31
2018-09-15T09:49:40.600Z,56.82
2018-09-15T09:50:40.596Z,56.82
2018-09-15T09:51:40.593Z,57.02
2018-09-15T09:52:40.596Z,56.25
2018-09-15T09:53:40.590Z,56.82
2018-09-15T09:54:40.587Z,56.82
2018-09-15T09:55:40.583Z,56.25
2018-09-15T09:56:40.587Z,56.82
2018-09-15T09:57:40.581Z,57.14
2018-09-15T09:58:40.577Z,56.76
2018-09-15T09:59:40.575Z,56.27
2018-09-15T10:00:40.576Z,56.47
2018-09-15T10:01:40.572Z,55.99
2018-09-15T10:02:40.570Z,56.09
2018-09-15T10:03:40.567Z,56.18
2018-09-15T10:04:40.569Z,55.99
2018-09-15T10:05:40.563Z,57.24
2018-09-15T10:06:40.565Z,56.85
2018-09-15T10:07:40.574Z,56.4
2018-09-15T10:08:40.307Z,56.11
2018-09-15T10:09:40.554Z,56.01
2018-09-15T10:10:40.554Z,56.11
2018-09-15T10:11:40.553Z,56.4
2018-09-15T10:12:40.551Z,56.33
2018-09-15T10:13:40.549Z,55.85
2018-09-15T10:14:40.548Z,55.27
2018-09-15T10:15:40.548Z,54.79
2018-09-15T10:16:40.548Z,54.69
2018-09-15T10:17:40.542Z,54.98
2018-09-15T10:18:40.554Z,54.6
2018-09-15T10:19:40.541Z,55.18
2018-09-15T10:20:40.293Z,54.79
2018-09-15T10:21:40.768Z,54.31
2018-09-15T10:22:40.540Z,54.82
2018-09-15T10:23:40.535Z,55.18
2018-09-15T10:24:40.530Z,54.24
2018-09-15T10:25:40.531Z,54.62
2018-09-15T10:26:40.534Z,54.62
2018-09-15T10:27:40.533Z,54.6
2018-09-15T10:28:40.526Z,53.27
2018-09-15T10:29:40.527Z,53.08
2018-09-15T10:30:40.272Z,53.83
2018-09-15T10:31:40.526Z,54.62
2018-09-15T10:32:40.521Z,53.85
2018-09-15T10:33:40.518Z,53.66
2018-09-15T10:34:40.518Z,53.85
2018-09-15T10:35:40.520Z,53.85
2018-09-15T10:36:40.519Z,54.14
2018-09-15T10:37:40.517Z,53.47
2018-09-15T10:38:40.522Z,53.47
2018-09-15T10:39:40.511Z,53.39
2018-09-15T10:40:40.259Z,53.3
2018-09-15T10:41:40.512Z,53.59
2018-09-15T10:42:40.509Z,53.3
2018-09-15T10:43:40.507Z,53.49
2018-09-15T10:44:40.512Z,52.81
2018-09-15T10:45:40.514Z,53.2
2018-09-15T10:46:40.597Z,53.52
2018-09-15T10:47:40.506Z,52.26
2018-09-15T10:48:40.505Z,51.97
2018-09-15T10:49:40.508Z,52.39
2018-09-15T10:50:40.507Z,51.81
2018-09-15T10:51:40.499Z,51.03
2018-09-15T10:52:40.508Z,50.84
2018-09-15T10:53:40.504Z,50.45
2018-09-15T10:54:40.245Z,50.26
2018-09-15T10:55:40.499Z,50.45
2018-09-15T10:56:40.499Z,50.74
2018-09-15T10:57:40.498Z,50.84
2018-09-15T10:58:40.497Z,50.43
2018-09-15T10:59:40.540Z,50.62
2018-09-15T11:00:40.635Z,50.52
2018-09-15T11:01:40.492Z,50.91
2018-09-15T11:02:40.492Z,50.91
2018-09-15T11:03:40.498Z,51.2
2018-09-15T11:04:40.496Z,50.71
2018-09-15T11:05:40.535Z,50.23
2018-09-15T11:06:40.239Z,50.33
2018-09-15T11:07:40.489Z,50.74
2018-09-15T11:08:40.492Z,50.71
2018-09-15T11:09:40.495Z,50.91
2018-09-15T11:10:40.236Z,50.81
2018-09-15T11:11:40.491Z,50.33
2018-09-15T11:12:40.486Z,50.52
2018-09-15T11:13:40.931Z,50.81
2018-09-15T11:14:40.485Z,50.91
2018-09-15T11:15:40.484Z,50.91
2018-09-15T11:16:40.546Z,51.01
2018-09-15T11:17:40.481Z,51.2
2018-09-15T11:18:40.486Z,51.29
2018-09-15T11:19:40.480Z,51.01
2018-09-15T11:20:40.479Z,50.65
2018-09-15T11:21:40.479Z,50.45
2018-09-15T11:22:40.509Z,50.45
2018-09-15T11:23:40.477Z,50.55
2018-09-15T11:24:40.477Z,50.55
2018-09-15T11:25:40.477Z,50.55
2018-09-15T11:26:40.224Z,50.28
2018-09-15T11:27:40.476Z,49.9
2018-09-15T11:28:40.700Z,50.48
2018-09-15T11:29:40.476Z,50.09
2018-09-15T11:30:40.477Z,50.4
2018-09-15T11:31:40.473Z,50.12
2018-09-15T11:32:40.474Z,49.63
2018-09-15T11:33:40.481Z,49.63
2018-09-15T11:34:40.474Z,49.54
2018-09-15T11:35:40.477Z,49.63
2018-09-15T11:36:40.474Z,49.8
2018-09-15T11:37:40.474Z,50.38
2018-09-15T11:38:40.477Z,50.28
2018-09-15T11:39:40.472Z,50.09
2018-09-15T11:40:40.473Z,49.99
2018-09-15T11:41:40.471Z,49.99
2018-09-15T11:42:40.471Z,50.48
2018-09-15T11:43:40.515Z,50.16
2018-09-15T11:44:40.729Z,49.97
2018-09-15T11:45:40.471Z,49.68
2018-09-15T11:46:40.470Z,49.49
2018-09-15T11:47:40.478Z,49.68
2018-09-15T11:48:40.470Z,49.87
2018-09-15T11:49:40.474Z,50.35
2018-09-15T11:50:40.467Z,50.35
2018-09-15T11:51:40.469Z,49.68
2018-09-15T11:52:40.468Z,49.49
2018-09-15T11:53:40.477Z,49.29
2018-09-15T11:54:40.470Z,49.77
2018-09-15T11:55:40.477Z,49.49
2018-09-15T11:56:40.466Z,49.68
2018-09-15T11:57:40.468Z,49.68
2018-09-15T11:58:40.465Z,49.68
2018-09-15T11:59:40.465Z,48.71
2018-09-15T12:00:40.466Z,48.32
2018-09-15T12:01:40.211Z,48.25
2018-09-15T12:02:40.465Z,48.35
2018-09-15T12:03:40.461Z,48.06
2018-09-15T12:04:40.465Z,47.58
2018-09-15T12:05:40.461Z,47.67
2018-09-15T12:06:40.460Z,47.96
2018-09-15T12:07:40.483Z,47.99
2018-09-15T12:08:40.459Z,47.31
2018-09-15T12:09:40.208Z,47.41
2018-09-15T12:10:40.463Z,46.92
2018-09-15T12:11:40.459Z,46.92
2018-09-15T12:12:40.460Z,46.73
2018-09-15T12:13:40.458Z,47.24
2018-09-15T12:14:40.457Z,47.24
2018-09-15T12:15:40.457Z,47.43
2018-09-15T12:16:40.457Z,47.52
2018-09-15T12:17:40.458Z,47.72
2018-09-15T12:18:40.457Z,46.94
2018-09-15T12:19:40.459Z,46.84
2018-09-15T12:20:40.462Z,46.66
2018-09-15T12:21:40.547Z,46.66
2018-09-15T12:22:40.460Z,46.75
2018-09-15T12:23:40.460Z,46.56
2018-09-15T12:24:40.460Z,46.56
2018-09-15T12:25:40.461Z,46.36
2018-09-15T12:26:40.461Z,46.84
2018-09-15T12:27:40.499Z,46.66
2018-09-15T12:28:40.207Z,46.56
2018-09-15T12:29:40.460Z,46.08
2018-09-15T12:30:40.466Z,46.56
2018-09-15T12:31:40.468Z,45.88
2018-09-15T12:32:40.461Z,46.36
2018-09-15T12:33:40.646Z,46.66
2018-09-15T12:34:40.464Z,46.36
2018-09-15T12:35:40.463Z,46.58
2018-09-15T12:36:40.462Z,45.71
2018-09-15T12:37:40.461Z,45.81
2018-09-15T12:38:40.469Z,46.29
2018-09-15T12:39:40.211Z,46.48
2018-09-15T12:40:40.464Z,46.09
2018-09-15T12:41:40.469Z,46.09
2018-09-15T12:42:40.214Z,45.81
2018-09-15T12:43:40.214Z,45.81
2018-09-15T12:44:40.467Z,46
2018-09-15T12:45:40.467Z,45.9
2018-09-15T12:46:40.465Z,46.29
2018-09-15T12:47:40.215Z,46.56
2018-09-15T12:48:40.469Z,46.84
2018-09-15T12:49:40.474Z,46.75
2018-09-15T12:50:40.469Z,46.66
2018-09-15T12:51:40.469Z,46.75
2018-09-15T12:52:40.470Z,46.84
2018-09-15T12:53:40.470Z,46.75
2018-09-15T12:54:40.470Z,46.08
2018-09-15T12:55:40.472Z,47.04
2018-09-15T12:56:40.469Z,47.24